Time;durP1;ratioP1;P1;durP2;ratioP2;P2;SDS_P1;SDS_P2;PMS_P1;PMS_P2;Temp;Humidity;BMP_temperature;BMP_pressure;BME280_temperature;BME280_humidity;BME280_pressure;Samples;Min_cycle;Max_cycle;Signal;HPM_P1;HPM_P2
2021/09/11 18:47:24;;;;;;;8.52;3.85;;;18.90;99.90;;;20.50;84.51;100669.69;4159540;23;20323;-83
2021/09/11 18:49:50;;;;;;;5.70;3.45;;;18.90;99.90;;;20.56;84.13;100666.38;4917923;29;20056;-87
2021/09/11 18:52:16;;;;;;;5.93;3.30;;;18.80;99.90;;;20.64;83.73;100673.56;4922868;29;20056;-85
2021/09/11 18:54:42;;;;;;;4.45;3.38;;;18.90;99.90;;;20.65;83.74;100673.13;4922208;29;20032;-88
2021/09/11 18:57:08;;;;;;;5.20;3.38;;;18.80;99.90;;;20.60;84.08;100670.78;4923691;29;20028;-89
2021/09/11 18:59:34;;;;;;;3.90;3.40;;;18.80;99.90;;;20.52;84.67;100676.97;4924881;29;20036;-87
2021/09/11 19:02:00;;;;;;;7.97;3.25;;;18.80;99.90;;;20.55;84.45;100671.25;4931102;29;20429;-86
2021/09/11 19:04:26;;;;;;;7.68;3.97;;;18.80;99.90;;;20.47;84.89;100683.91;4922926;29;20044;-86
2021/09/11 19:06:52;;;;;;;6.05;3.78;;;18.70;99.90;;;20.57;84.48;100685.81;4929564;29;20170;-86
2021/09/11 19:09:18;;;;;;;5.05;4.05;;;18.80;99.90;;;20.59;84.74;100686.19;4937249;29;20043;-86
2021/09/11 19:11:44;;;;;;;6.97;4.30;;;18.70;99.90;;;20.57;84.71;100694.34;4938828;29;20088;-84
2021/09/11 19:14:10;;;;;;;9.68;4.53;;;18.80;99.90;;;20.50;85.18;100698.06;4932857;29;20036;-85
2021/09/11 19:16:36;;;;;;;5.75;3.83;;;18.80;99.90;;;20.43;86.17;100703.00;4927127;29;20047;-85
2021/09/11 19:19:03;;;;;;;6.97;4.05;;;18.80;99.90;;;20.45;86.27;100706.25;4931962;29;20036;-87
2021/09/11 19:21:29;;;;;;;6.93;4.13;;;18.80;99.90;;;20.43;87.53;100714.34;4937119;29;20049;-87
2021/09/11 19:23:55;;;;;;;4.82;4.28;;;18.80;99.90;;;20.41;89.27;100709.13;4934770;29;20028;-87
2021/09/11 19:26:21;;;;;;;6.93;5.35;;;18.70;99.90;;;20.06;94.29;100726.50;4927464;29;20035;-87
2021/09/11 19:28:49;;;;;;;13.57;8.60;;;18.60;99.90;;;19.96;96.69;100728.22;4922065;29;20457;-87
2021/09/11 19:31:16;;;;;;;9.27;6.57;;;18.50;99.90;;;19.84;98.58;100719.44;4921156;29;20032;-87
2021/09/11 19:33:43;;;;;;;10.90;7.00;;;18.30;99.90;;;19.81;99.81;100731.63;4923170;29;20036;-86
2021/09/11 19:36:09;;;;;;;10.20;6.93;;;18.30;99.90;;;19.83;100.00;100723.50;4921817;29;20028;-84
2021/09/11 19:38:35;;;;;;;8.15;6.70;;;18.20;99.90;;;19.79;100.00;100729.19;4921085;29;20036;-85
2021/09/11 19:41:01;;;;;;;9.50;7.13;;;18.10;99.90;;;19.79;100.00;100720.69;4921127;29;20496;-84
2021/09/11 19:43:30;;;;;;;8.07;7.25;;;18.00;99.90;;;19.79;100.00;100725.56;4904435;29;20035;-88
2021/09/11 19:45:56;;;;;;;9.55;7.60;;;18.00;99.90;;;19.76;100.00;100732.06;4906521;29;20025;-87
2021/09/11 19:48:22;;;;;;;8.23;7.18;;;17.90;99.90;;;19.67;100.00;100735.38;4909793;29;20055;-84
2021/09/11 19:50:48;;;;;;;8.98;7.70;;;17.90;99.90;;;19.67;100.00;100726.06;4901800;29;20064;-86
2021/09/11 19:53:22;;;;;;;9.43;6.82;;;17.90;99.90;;;19.67;100.00;100737.41;4904381;29;20040;-88
2021/09/11 19:55:48;;;;;;;11.55;9.50;;;17.80;99.90;;;19.65;100.00;100728.53;4919036;29;20037;-88
2021/09/11 19:58:13;;;;;;;12.55;8.43;;;17.80;99.90;;;19.64;100.00;100726.91;4903688;29;20043;-87
2021/09/11 20:00:39;;;;;;;12.77;8.80;;;17.90;99.90;;;19.64;100.00;100724.88;4909441;29;20053;-85
2021/09/11 20:03:06;;;;;;;11.10;8.52;;;17.80;99.90;;;19.58;100.00;100726.56;4919024;29;20021;-87
2021/09/11 20:05:32;;;;;;;10.82;8.35;;;17.80;99.90;;;19.57;100.00;100733.44;4904278;29;20092;-87
2021/09/11 20:07:58;;;;;;;11.88;8.63;;;17.70;99.90;;;19.55;100.00;100729.44;4902168;29;20028;-87
2021/09/11 20:10:24;;;;;;;11.63;9.00;;;17.70;99.90;;;19.49;100.00;100733.94;4905208;29;20048;-87
2021/09/11 20:12:50;;;;;;;12.50;9.15;;;17.70;99.90;;;19.51;100.00;100726.63;4905401;29;20143;-86
2021/09/11 20:15:16;;;;;;;13.25;9.27;;;17.70;99.90;;;19.44;100.00;100723.84;4904914;29;20057;-87
2021/09/11 20:17:42;;;;;;;12.70;8.20;;;17.70;99.90;;;19.33;100.00;100725.91;4902337;29;20064;-87
2021/09/11 20:20:10;;;;;;;11.80;8.15;;;17.60;99.90;;;19.29;100.00;100730.81;4901008;29;20029;-86
2021/09/11 20:22:35;;;;;;;10.98;7.55;;;17.60;99.90;;;19.39;100.00;100722.22;4902326;29;20032;-85
2021/09/11 20:25:02;;;;;;;9.95;7.45;;;17.60;99.90;;;19.42;100.00;100735.56;4904013;29;20132;-88
2021/09/11 20:27:29;;;;;;;10.27;8.80;;;17.60;99.90;;;19.41;100.00;100728.31;4903283;29;20048;-86
2021/09/11 20:29:55;;;;;;;10.23;8.70;;;17.60;99.90;;;19.37;100.00;100723.84;4903839;29;20021;-86
2021/09/11 20:32:21;;;;;;;12.02;8.80;;;17.60;99.90;;;19.42;100.00;100726.28;4902137;29;20029;-86
2021/09/11 20:34:47;;;;;;;14.05;10.27;;;17.60;99.90;;;19.35;100.00;100727.13;4902463;29;20370;-84
2021/09/11 20:37:13;;;;;;;10.85;9.75;;;17.60;99.90;;;19.36;100.00;100722.25;4904045;29;20481;-88
2021/09/11 20:39:39;;;;;;;13.02;10.55;;;17.60;99.90;;;19.39;100.00;100732.75;4904117;29;20029;-86
2021/09/11 20:42:05;;;;;;;11.23;9.80;;;17.60;99.90;;;19.37;100.00;100736.00;4902756;29;20025;-86
2021/09/11 20:44:32;;;;;;;12.25;9.65;;;17.50;99.90;;;19.32;100.00;100724.31;4902824;29;20101;-87
2021/09/11 20:46:58;;;;;;;14.30;10.32;;;17.50;99.90;;;19.24;100.00;100729.22;4903876;29;20033;-88
2021/09/11 20:49:24;;;;;;;12.38;10.02;;;17.50;99.90;;;19.18;100.00;100728.03;4903515;29;20037;-86
2021/09/11 20:51:49;;;;;;;13.55;10.63;;;17.50;99.90;;;19.17;100.00;100732.09;4903359;29;20052;-87
2021/09/11 20:54:15;;;;;;;13.90;10.60;;;17.40;99.90;;;19.20;100.00;100734.09;4903749;29;20040;-86
2021/09/11 20:56:41;;;;;;;16.30;11.43;;;17.40;99.90;;;19.16;100.00;100729.69;4918388;29;20032;-88
2021/09/11 20:59:08;;;;;;;13.48;9.50;;;17.50;99.90;;;19.23;100.00;100730.41;4906122;29;20051;-86
2021/09/11 21:01:34;;;;;;;16.02;11.77;;;17.50;99.90;;;19.21;100.00;100723.56;4904082;29;20043;-88
2021/09/11 21:04:05;;;;;;;13.75;11.10;;;17.40;99.90;;;19.23;100.00;100730.41;4901886;29;20132;-85
2021/09/11 21:06:32;;;;;;;16.30;10.73;;;17.50;99.90;;;19.27;100.00;100736.06;4904702;29;20112;-87
2021/09/11 21:08:59;;;;;;;16.85;12.00;;;17.50;99.90;;;19.25;100.00;100739.31;4905149;29;20385;-85
2021/09/11 21:11:25;;;;;;;17.00;12.20;;;17.50;99.90;;;19.26;100.00;100732.44;4908883;29;20057;-88
2021/09/11 21:13:51;;;;;;;16.20;12.07;;;17.50;99.90;;;19.31;100.00;100740.50;4909111;29;20060;-86
2021/09/11 21:16:18;;;;;;;15.07;12.07;;;17.50;99.90;;;19.25;100.00;100739.31;4908352;29;20033;-86
2021/09/11 21:18:48;;;;;;;16.90;12.05;;;17.50;99.90;;;19.27;100.00;100736.88;4910137;29;20040;-87
2021/09/11 21:21:16;;;;;;;16.75;12.00;;;17.50;99.90;;;19.31;100.00;100743.31;4912002;29;20041;-86
2021/09/11 21:23:42;;;;;;;16.73;11.10;;;17.50;99.90;;;19.32;100.00;100750.59;4910858;29;20485;-86
2021/09/11 21:26:12;;;;;;;16.45;11.88;;;17.50;99.90;;;19.29;100.00;100742.94;4925131;29;20032;-86
2021/09/11 21:28:38;;;;;;;16.30;11.85;;;17.50;99.90;;;19.22;100.00;100745.81;4914265;29;20039;-83
2021/09/11 21:31:03;;;;;;;15.88;12.48;;;17.50;99.90;;;19.21;100.00;100743.38;4921221;29;20149;-87
2021/09/11 21:33:30;;;;;;;18.50;13.10;;;17.50;99.90;;;19.16;100.00;100741.00;4921315;29;20056;-85
2021/09/11 21:35:56;;;;;;;18.42;13.25;;;17.50;99.90;;;19.20;100.00;100742.56;4920464;29;20068;-86
2021/09/11 21:38:22;;;;;;;20.02;13.70;;;17.50;99.90;;;19.27;100.00;100742.53;4910011;29;20040;-85
2021/09/11 21:40:48;;;;;;;19.02;13.85;;;17.50;99.90;;;19.21;100.00;100735.69;4907671;29;20108;-84
2021/09/11 21:43:15;;;;;;;16.73;12.68;;;17.50;99.90;;;19.29;100.00;100748.59;4905582;29;20131;-85
2021/09/11 21:45:41;;;;;;;17.70;14.30;;;17.50;99.90;;;19.24;100.00;100742.56;4921951;29;20496;-86
2021/09/11 21:48:09;;;;;;;21.88;13.88;;;17.50;99.90;;;19.19;100.00;100746.66;4908315;29;20116;-86
2021/09/11 21:50:35;;;;;;;18.65;13.85;;;17.40;99.90;;;19.08;100.00;100739.44;4925071;29;20028;-86
2021/09/11 21:53:01;;;;;;;18.38;14.20;;;17.40;99.90;;;19.13;100.00;100747.50;4915657;29;20053;-86
2021/09/11 21:55:27;;;;;;;22.00;15.48;;;17.40;99.90;;;19.10;100.00;100742.66;4921985;29;20081;-87
2021/09/11 21:57:56;;;;;;;23.67;16.35;;;17.40;99.90;;;19.12;100.00;100746.69;4920646;29;20127;-87
2021/09/11 22:00:53;;;;;;;20.80;15.20;;;17.40;99.90;;;19.13;100.00;100742.66;4920327;29;20107;-86
2021/09/11 22:03:23;;;;;;;21.00;15.27;;;17.40;99.90;;;19.09;100.00;100744.69;4919745;29;20032;-85
2021/09/11 22:05:49;;;;;;;22.00;16.38;;;17.40;99.90;;;19.14;100.00;100751.91;4906291;29;20024;-85
2021/09/11 22:08:18;;;;;;;20.92;15.32;;;17.40;99.90;;;19.21;100.00;100749.84;4922158;29;20096;-85
2021/09/11 22:10:45;;;;;;;21.08;16.30;;;17.40;99.90;;;19.19;100.00;100746.66;4919961;29;20060;-86
2021/09/11 22:13:12;;;;;;;22.80;17.65;;;17.40;99.90;;;19.19;100.00;100749.47;4904974;29;20039;-84
2021/09/11 22:15:40;;;;;;;21.70;15.80;;;17.40;99.90;;;19.13;100.00;100744.66;4904943;29;20028;-86
2021/09/11 22:18:08;;;;;;;24.67;17.55;;;17.40;99.90;;;19.18;100.00;100749.88;4918734;29;20045;-85
2021/09/11 22:20:36;;;;;;;24.27;17.40;;;17.40;99.90;;;19.24;100.00;100751.06;4918440;29;20032;-84
2021/09/11 22:23:02;;;;;;;22.50;15.95;;;17.40;99.90;;;19.24;100.00;100740.53;4917021;29;20040;-85
2021/09/11 22:25:28;;;;;;;25.30;18.92;;;17.40;99.90;;;19.20;100.00;100750.28;4918243;29;20055;-86
2021/09/11 22:27:55;;;;;;;23.23;17.02;;;17.40;99.90;;;19.23;100.00;100746.63;4918680;29;20032;-86
2021/09/11 22:30:22;;;;;;;25.02;17.90;;;17.40;99.90;;;19.19;100.00;100752.31;4918147;29;20399;-85
2021/09/11 22:32:48;;;;;;;25.05;17.75;;;17.40;99.90;;;19.22;100.00;100748.66;4917804;29;20127;-86
2021/09/11 22:35:15;;;;;;;25.95;19.80;;;17.40;99.90;;;19.14;100.00;100755.56;4902742;29;20033;-84
2021/09/11 22:37:42;;;;;;;25.08;18.08;;;17.40;99.90;;;19.15;100.00;100759.19;4917057;29;20033;-86
2021/09/11 22:40:12;;;;;;;26.00;19.55;;;17.40;99.90;;;19.18;100.00;100755.53;4903144;29;20107;-87
2021/09/11 22:42:39;;;;;;;25.50;18.67;;;17.40;99.90;;;19.22;100.00;100753.50;4926136;29;20087;-85
2021/09/11 22:45:09;;;;;;;26.40;19.08;;;17.40;99.90;;;18.86;100.00;100747.25;4921646;29;20448;-88
2021/09/11 22:47:35;;;;;;;27.15;20.90;;;17.40;99.90;;;18.81;100.00;100750.50;4919683;29;20481;-84
2021/09/11 22:50:01;;;;;;;32.50;21.60;;;17.30;99.90;;;18.76;100.00;100748.09;4920016;29;20043;-85
2021/09/11 22:52:27;;;;;;;28.50;20.85;;;17.30;99.90;;;18.77;100.00;100750.53;4921669;29;20043;-85
2021/09/11 22:54:53;;;;;;;30.15;21.63;;;17.40;99.90;;;18.80;100.00;100749.69;4921875;29;20032;-87
2021/09/11 22:57:19;;;;;;;32.63;22.65;;;17.40;99.90;;;18.77;100.00;100750.53;4921764;29;20118;-87
2021/09/11 22:59:44;;;;;;;27.95;21.05;;;17.30;99.90;;;18.79;100.00;100747.25;4922812;29;20097;-83
2021/09/11 23:02:11;;;;;;;32.78;23.45;;;17.40;99.90;;;18.77;100.00;100758.19;4920958;29;20503;-84
2021/09/11 23:04:37;;;;;;;34.47;23.95;;;17.40;99.90;;;18.76;100.00;100751.72;4921363;29;20587;-87
2021/09/11 23:07:03;;;;;;;31.10;22.25;;;17.40;99.90;;;18.80;100.00;100754.53;4920922;29;20079;-87
2021/09/11 23:09:29;;;;;;;32.63;24.10;;;17.40;99.90;;;18.77;100.00;100752.53;4921406;29;20035;-86
2021/09/11 23:11:55;;;;;;;32.72;23.30;;;17.40;99.90;;;18.79;100.00;100744.44;4920875;29;20032;-87
2021/09/11 23:14:21;;;;;;;37.72;25.45;;;17.40;99.90;;;18.78;100.00;100746.44;4920211;29;20036;-89
2021/09/11 23:16:46;;;;;;;35.60;22.52;;;17.40;99.90;;;18.82;100.00;100746.44;4920973;29;20083;-88
2021/09/11 23:19:13;;;;;;;36.67;26.42;;;17.40;99.90;;;18.82;100.00;100749.28;4922933;29;20032;-86
2021/09/11 23:21:40;;;;;;;35.33;24.85;;;17.40;99.90;;;18.85;100.00;100754.91;4925605;29;20032;-87
2021/09/11 23:24:06;;;;;;;32.50;23.55;;;17.40;99.90;;;18.84;100.00;100744.03;4926219;29;20032;-89
2021/09/11 23:26:32;;;;;;;32.20;23.63;;;17.40;99.90;;;18.84;100.00;100747.66;4925781;29;20028;-85
2021/09/11 23:28:58;;;;;;;33.85;23.42;;;17.40;99.90;;;18.82;100.00;100744.41;4925462;29;20060;-87
2021/09/11 23:31:24;;;;;;;40.72;28.88;;;17.50;99.90;;;18.80;100.00;100746.06;4924895;29;20024;-87
2021/09/11 23:33:50;;;;;;;35.13;24.35;;;17.40;99.90;;;18.80;100.00;100748.88;4938265;29;20036;-86
2021/09/11 23:36:17;;;;;;;32.60;23.90;;;17.40;99.90;;;18.80;100.00;100743.22;4922520;29;20036;-87
2021/09/11 23:38:42;;;;;;;38.17;27.15;;;17.40;99.90;;;18.80;100.00;100746.06;4923281;29;20043;-87
2021/09/11 23:41:08;;;;;;;38.15;26.52;;;17.30;99.90;;;18.80;100.00;100746.06;4923922;29;20036;-87
2021/09/11 23:43:34;;;;;;;40.42;27.83;;;17.30;99.90;;;18.75;100.00;100733.13;4908187;29;20035;-88
2021/09/11 23:46:00;;;;;;;40.38;27.50;;;17.40;99.90;;;18.75;100.00;100741.63;4905002;29;20056;-87
2021/09/11 23:48:26;;;;;;;41.35;28.13;;;17.30;99.90;;;18.75;100.00;100732.34;4906359;29;20037;-88
2021/09/11 23:50:52;;;;;;;46.92;28.42;;;17.30;99.90;;;18.75;100.00;100735.97;4912525;29;20073;-87
2021/09/11 23:53:18;;;;;;;42.20;28.17;;;17.30;99.90;;;18.75;100.00;100738.00;4916540;29;20124;-84
2021/09/11 23:55:44;;;;;;;36.60;24.08;;;17.40;99.90;;;18.76;100.00;100736.78;4906888;29;20029;-85
2021/09/11 23:58:10;;;;;;;31.15;22.30;;;17.30;99.90;;;18.77;100.00;100741.22;4921087;29;20028;-85
